Time;durP1;ratioP1;P1;durP2;ratioP2;P2;SDS_P1;SDS_P2;PMS_P1;PMS_P2;Temp;Humidity;BMP_temperature;BMP_pressure;BME280_temperature;BME280_humidity;BME280_pressure;Samples;Min_cycle;Max_cycle;Signal;HPM_P1;HPM_P2
2022/10/23 00:02:10;;;;;;;17.30;7.40;;;;;;;-143.84;40.08;45064.31;5089731;28;20482;-73
2022/10/23 00:04:37;;;;;;;13.60;7.27;;;;;;;-143.84;40.06;45087.16;5090018;28;20991;-73
2022/10/23 00:07:04;;;;;;;12.87;6.50;;;;;;;-143.84;40.21;45062.41;5090244;28;20427;-73
2022/10/23 00:09:31;;;;;;;12.73;6.67;;;;;;;-143.84;39.95;45060.50;5090248;28;20882;-73
2022/10/23 00:12:00;;;;;;;29.27;7.67;;;;;;;-143.84;39.90;45106.19;5090340;28;20501;-73
2022/10/23 00:14:27;;;;;;;9.43;7.03;;;;;;;-143.84;40.06;45060.50;5090391;28;20439;-73
2022/10/23 00:16:54;;;;;;;11.80;6.53;;;;;;;-143.84;40.35;45068.13;5089585;28;20438;-73
2022/10/23 00:19:21;;;;;;;15.03;7.77;;;;;;;-143.84;40.01;45066.22;5089645;28;20500;-73
2022/10/23 00:21:48;;;;;;;15.03;7.60;;;;;;;-143.84;40.08;45077.63;5089698;28;20508;-73
2022/10/23 00:24:15;;;;;;;13.30;7.43;;;;;;;-143.84;40.27;45081.44;5089824;28;20913;-73
2022/10/23 00:26:43;;;;;;;13.67;6.43;;;;;;;-143.84;40.24;45087.16;5089681;28;20446;-73
2022/10/23 00:29:12;;;;;;;19.80;7.63;;;;;;;-143.84;40.18;45087.16;5089628;28;20438;-73
2022/10/23 00:31:39;;;;;;;10.90;6.57;;;;;;;-143.84;40.45;45075.72;5089630;28;20450;-73
2022/10/23 00:34:07;;;;;;;18.83;7.80;;;;;;;-143.84;40.52;45070.00;5089785;28;20453;-73
2022/10/23 00:36:34;;;;;;;30.47;6.93;;;;;;;-143.84;40.80;45066.22;5089697;28;20444;-73
2022/10/23 00:39:01;;;;;;;12.43;7.03;;;;;;;-143.84;40.74;45066.22;5089614;28;20437;-73
2022/10/23 00:41:31;;;;;;;11.73;6.83;;;;;;;-143.84;40.78;45077.63;5089430;28;20478;-73
2022/10/23 00:44:02;;;;;;;13.30;7.00;;;;;;;-143.84;41.07;45079.53;5089282;28;20437;-73
2022/10/23 00:46:31;;;;;;;12.07;6.47;;;;;;;-143.84;40.90;45047.16;5090746;28;20438;-73
2022/10/23 00:48:59;;;;;;;11.77;7.80;;;;;;;-143.84;41.17;45064.31;5093252;28;20546;-72
2022/10/23 00:51:29;;;;;;;10.87;6.33;;;;;;;-143.84;41.11;45068.13;5093389;28;20523;-73
2022/10/23 00:54:00;;;;;;;17.17;7.13;;;;;;;-143.84;40.92;45068.13;5093107;28;20441;-73
2022/10/23 00:56:28;;;;;;;8.87;7.07;;;;;;;-143.84;41.03;45081.44;5093190;28;20475;-73
2022/10/23 00:58:55;;;;;;;9.70;6.30;;;;;;;-143.84;40.90;45083.34;5093148;28;20428;-73
2022/10/23 01:01:23;;;;;;;9.63;6.60;;;;;;;-143.84;40.83;45087.16;5093126;28;20497;-73
2022/10/23 01:03:52;;;;;;;17.07;6.83;;;;;;;-143.84;40.92;45073.81;5093023;28;20436;-73
2022/10/23 01:06:33;;;;;;;12.10;7.00;;;;;;;-143.84;40.84;45073.81;5092907;28;20510;-73
2022/10/23 01:09:09;;;;;;;15.33;6.80;;;;;;;-143.84;40.87;45056.69;5092906;28;20935;-73
2022/10/23 01:11:41;;;;;;;24.80;7.20;;;;;;;-143.84;40.66;45066.22;5092895;28;20453;-73
2022/10/23 01:14:18;;;;;;;6.00;5.07;;;;;;;-143.84;40.45;45090.97;5093171;28;20505;-73
2022/10/23 01:16:57;;;;;;;19.77;6.87;;;;;;;-143.84;39.98;45071.91;5092667;28;20446;-73
2022/10/23 01:19:43;;;;;;;7.77;5.47;;;;;;;-143.84;39.92;45092.88;5092702;28;20519;-72
2022/10/23 01:22:22;;;;;;;8.30;5.50;;;;;;;-143.84;39.17;45050.97;5092421;28;20547;-72
2022/10/23 01:24:56;;;;;;;14.63;5.63;;;;;;;-143.84;38.72;45068.13;5092511;28;20439;-72
2022/10/23 01:27:27;;;;;;;6.47;4.83;;;;;;;-143.84;38.67;45066.22;5092617;28;20430;-72
2022/10/23 01:30:05;;;;;;;4.97;4.37;;;;;;;-143.84;38.38;45047.16;5092393;28;20995;-72
2022/10/23 01:32:40;;;;;;;6.40;4.37;;;;;;;-143.84;38.03;45064.31;5092251;28;20534;-73
2022/10/23 01:35:13;;;;;;;6.60;4.20;;;;;;;-143.84;37.89;45047.16;5092537;28;20480;-73
2022/10/23 01:37:44;;;;;;;12.57;4.77;;;;;;;-143.84;37.88;45060.50;5092157;28;20432;-73
2022/10/23 01:40:20;;;;;;;12.93;5.27;;;;;;;-143.84;37.80;45073.81;5092687;28;20500;-72
2022/10/23 01:42:54;;;;;;;6.43;4.90;;;;;;;-143.84;37.96;45064.31;5092513;28;20475;-73
2022/10/23 01:45:26;;;;;;;10.83;5.00;;;;;;;-143.84;38.08;45068.13;5092786;28;20451;-73
2022/10/23 01:47:55;;;;;;;15.00;4.60;;;;;;;-143.84;37.90;45033.84;5092205;28;20533;-72
2022/10/23 01:50:25;;;;;;;11.30;4.63;;;;;;;-143.84;37.93;45050.97;5092256;28;20554;-73
2022/10/23 01:52:52;;;;;;;7.57;5.10;;;;;;;-143.84;37.72;45031.94;5092182;28;20436;-73
2022/10/23 01:55:20;;;;;;;12.23;5.03;;;;;;;-143.84;37.70;45073.81;5091926;28;20936;-72
2022/10/23 01:57:50;;;;;;;13.53;4.80;;;;;;;-143.84;37.50;45071.91;5090691;28;20509;-72
2022/10/23 02:00:19;;;;;;;11.13;4.90;;;;;;;-143.84;37.04;45050.97;5092226;28;21320;-72
2022/10/23 02:02:49;;;;;;;5.80;4.47;;;;;;;-143.84;36.99;45071.91;5091696;28;20487;-73
2022/10/23 02:05:20;;;;;;;9.80;3.90;;;;;;;-143.84;37.10;45052.88;5091872;28;20436;-73
2022/10/23 02:07:47;;;;;;;15.87;4.80;;;;;;;-143.84;36.78;45049.06;5091688;28;20516;-73
2022/10/23 02:10:16;;;;;;;5.03;4.53;;;;;;;-143.84;36.87;45047.16;5091442;28;20502;-73
2022/10/23 02:12:55;;;;;;;9.67;4.60;;;;;;;-143.84;37.05;45050.97;5091346;28;20469;-73
2022/10/23 02:15:29;;;;;;;13.50;4.90;;;;;;;-143.84;36.91;45041.44;5091552;28;20439;-73
2022/10/23 02:18:08;;;;;;;7.83;4.57;;;;;;;-143.84;37.13;45064.31;5091616;28;20435;-73
2022/10/23 02:20:39;;;;;;;9.53;4.30;;;;;;;-143.84;37.32;45064.31;5091691;28;20443;-73
2022/10/23 02:23:15;;;;;;;6.97;4.90;;;;;;;-143.84;37.58;45047.16;5091860;28;20838;-73
2022/10/23 02:25:50;;;;;;;8.13;4.87;;;;;;;-143.84;37.49;45037.66;5091502;28;20805;-73
2022/10/23 02:28:24;;;;;;;10.07;5.63;;;;;;;-143.84;37.66;45045.25;5091800;28;20454;-73
2022/10/23 02:30:54;;;;;;;13.13;5.80;;;;;;;-143.84;37.54;45031.94;5091643;28;20443;-73
2022/10/23 02:33:23;;;;;;;14.93;5.93;;;;;;;-143.84;37.50;45056.69;5091197;28;20432;-72
2022/10/23 02:35:51;;;;;;;13.50;5.93;;;;;;;-143.84;37.70;45056.69;5091291;28;20448;-72
2022/10/23 02:38:33;;;;;;;15.53;6.30;;;;;;;-143.84;37.71;45077.63;5091515;28;20451;-73
2022/10/23 02:41:17;;;;;;;6.73;5.63;;;;;;;-143.84;37.93;45068.13;5091618;28;20574;-72
2022/10/23 02:43:57;;;;;;;9.83;5.43;;;;;;;-143.84;37.65;45075.72;5091804;28;20470;-72
2022/10/23 02:46:29;;;;;;;7.93;4.77;;;;;;;-143.84;38.05;45075.72;5091783;28;20432;-72
2022/10/23 02:49:09;;;;;;;12.33;6.07;;;;;;;-143.84;38.14;45045.25;5091529;28;21380;-73
2022/10/23 02:51:45;;;;;;;11.50;5.10;;;;;;;-143.84;38.20;45054.78;5091701;28;20547;-72
2022/10/23 02:54:19;;;;;;;13.17;6.17;;;;;;;-143.84;38.47;45031.94;5090962;28;20498;-73
2022/10/23 02:56:54;;;;;;;16.80;5.50;;;;;;;-143.84;38.56;45075.72;5090604;28;20432;-73
2022/10/23 02:59:30;;;;;;;6.53;5.70;;;;;;;-143.84;38.50;45064.31;5090774;28;20438;-72
2022/10/23 03:02:05;;;;;;;11.70;5.50;;;;;;;-143.84;38.81;45064.31;5090939;28;20478;-72
2022/10/23 03:04:33;;;;;;;7.77;4.90;;;;;;;-143.84;38.75;45079.53;5091094;28;20945;-73
2022/10/23 03:07:00;;;;;;;13.67;6.27;;;;;;;-143.84;38.98;45056.69;5090839;28;20876;-73
2022/10/23 03:09:28;;;;;;;11.87;6.43;;;;;;;-143.84;38.96;45060.50;5090578;28;20853;-73
2022/10/23 03:11:55;;;;;;;9.23;5.93;;;;;;;-143.84;39.00;45052.88;5090736;28;20450;-73
2022/10/23 03:14:24;;;;;;;8.07;5.73;;;;;;;-143.84;39.11;45071.91;5090600;28;20454;-72
2022/10/23 03:16:51;;;;;;;11.97;6.33;;;;;;;-143.84;39.10;45070.00;5091229;28;20516;-73
2022/10/23 03:19:18;;;;;;;12.53;5.87;;;;;;;-143.84;39.07;45071.91;5090812;28;20492;-73
2022/10/23 03:21:45;;;;;;;10.90;5.30;;;;;;;-143.84;38.86;45039.53;5091159;28;20992;-73
2022/10/23 03:24:12;;;;;;;11.40;4.97;;;;;;;-143.84;38.56;45050.97;5090636;28;20436;-72
2022/10/23 03:26:40;;;;;;;10.23;5.13;;;;;;;-143.84;38.57;45049.06;5090420;28;20489;-73
2022/10/23 03:29:07;;;;;;;8.33;5.23;;;;;;;-143.84;38.35;45045.25;5090382;28;20508;-73
2022/10/23 03:31:35;;;;;;;16.20;5.70;;;;;;;-143.84;38.18;45041.44;5090512;28;20501;-73
2022/10/23 03:34:08;;;;;;;13.97;5.00;;;;;;;-143.84;38.13;45056.69;5090710;28;20435;-73
2022/10/23 03:36:35;;;;;;;9.10;4.63;;;;;;;-143.84;37.98;45041.44;5090599;28;20443;-73
2022/10/23 03:39:03;;;;;;;10.67;5.27;;;;;;;-143.84;37.72;45079.53;5090435;28;20942;-73
2022/10/23 03:41:30;;;;;;;4.90;3.97;;;;;;;-143.84;38.04;45047.16;5090061;28;20443;-73
2022/10/23 03:43:58;;;;;;;10.63;4.60;;;;;;;-143.84;37.51;45043.34;5090536;28;20497;-73
2022/10/23 03:46:25;;;;;;;13.17;5.60;;;;;;;-143.84;37.48;45050.97;5090139;28;20436;-73
2022/10/23 03:48:54;;;;;;;8.57;4.30;;;;;;;-143.84;37.61;45043.34;5089626;28;20471;-73
2022/10/23 03:51:21;;;;;;;15.00;6.30;;;;;;;-143.84;37.50;45049.06;5090580;28;20455;-73
2022/10/23 03:53:48;;;;;;;14.53;5.57;;;;;;;-143.84;37.47;45068.13;5090120;28;20852;-73
2022/10/23 03:56:15;;;;;;;7.10;4.30;;;;;;;-143.84;37.64;45043.34;5090187;28;20420;-73
2022/10/23 03:58:42;;;;;;;8.73;5.03;;;;;;;-143.84;37.63;45066.22;5090209;28;20439;-73
2022/10/23 04:01:09;;;;;;;19.50;5.57;;;;;;;-143.84;37.48;45031.94;5089378;28;20440;-73
2022/10/23 04:03:37;;;;;;;14.37;5.70;;;;;;;-143.84;37.18;45039.53;5089618;28;21054;-73
2022/10/23 04:06:06;;;;;;;7.40;4.97;;;;;;;-143.84;37.27;45054.78;5089965;28;20440;-73
2022/10/23 04:08:33;;;;;;;7.13;4.30;;;;;;;-143.84;37.27;45073.81;5088766;28;20436;-73
2022/10/23 04:11:00;;;;;;;17.43;4.63;;;;;;;-143.84;36.99;45033.84;5089599;28;20451;-73
2022/10/23 04:13:27;;;;;;;12.33;5.13;;;;;;;-143.84;37.18;45070.00;5090082;28;20432;-73
2022/10/23 04:15:54;;;;;;;10.63;4.87;;;;;;;-143.84;36.84;45064.31;5085417;28;20440;-73
2022/10/23 04:18:21;;;;;;;10.77;4.47;;;;;;;-143.84;37.21;45049.06;5078089;28;20617;-73
2022/10/23 04:20:49;;;;;;;9.93;5.40;;;;;;;-143.84;37.01;45026.22;5082109;28;20432;-73
2022/10/23 04:23:18;;;;;;;8.37;5.10;;;;;;;-143.84;36.96;45043.34;5079868;28;20476;-73
2022/10/23 04:25:45;;;;;;;10.30;5.37;;;;;;;-143.84;37.01;45043.34;5081717;28;20452;-73
2022/10/23 04:28:13;;;;;;;14.23;5.50;;;;;;;-143.84;36.80;45041.44;5073483;28;20440;-73
2022/10/23 04:30:40;;;;;;;12.43;5.30;;;;;;;-143.84;36.76;45050.97;5073476;28;20440;-73
2022/10/23 04:33:07;;;;;;;15.77;4.83;;;;;;;-143.84;36.66;45026.22;5083406;28;20444;-73
2022/10/23 04:35:34;;;;;;;8.73;5.30;;;;;;;-143.84;36.58;45033.84;5090740;28;20509;-73
2022/10/23 04:38:02;;;;;;;8.20;4.70;;;;;;;-143.84;36.63;45026.22;5093799;28;20444;-72
2022/10/23 04:40:30;;;;;;;13.90;5.47;;;;;;;-143.84;36.49;45045.25;5093461;28;20439;-73
2022/10/23 04:42:57;;;;;;;10.47;5.10;;;;;;;-143.84;36.58;45028.13;5094029;28;21156;-73
2022/10/23 04:45:25;;;;;;;12.60;5.70;;;;;;;-143.84;36.62;45054.78;5094494;28;20432;-73
2022/10/23 04:47:52;;;;;;;13.33;4.90;;;;;;;-143.84;36.41;45047.16;5094108;28;20552;-73
2022/10/23 04:50:20;;;;;;;11.17;4.83;;;;;;;-143.84;36.46;45039.53;5094333;28;20885;-73
2022/10/23 04:52:47;;;;;;;7.23;5.53;;;;;;;-143.84;36.73;45024.31;5094103;28;20440;-73
2022/10/23 04:55:14;;;;;;;9.17;4.97;;;;;;;-143.84;36.90;45041.44;5080018;28;20440;-73
2022/10/23 04:57:43;;;;;;;12.67;6.10;;;;;;;-143.84;37.10;45037.66;5086721;28;20447;-72
2022/10/23 05:00:13;;;;;;;12.33;5.83;;;;;;;-143.84;37.23;45043.34;5081119;28;20456;-74
2022/10/23 05:02:40;;;;;;;8.97;5.27;;;;;;;-143.84;37.81;45052.88;5081468;28;20464;-74
2022/10/23 05:05:08;;;;;;;15.27;5.90;;;;;;;-143.84;37.98;45043.34;5092465;28;20505;-75
2022/10/23 05:07:36;;;;;;;10.90;5.00;;;;;;;-143.84;37.92;45045.25;5074696;28;20760;-75
2022/10/23 05:10:03;;;;;;;10.50;5.93;;;;;;;-143.84;37.98;45043.34;5092247;28;20528;-74
2022/10/23 05:12:30;;;;;;;8.50;6.53;;;;;;;-143.84;37.83;45070.00;5092641;28;20469;-75
2022/10/23 05:15:00;;;;;;;68.37;41.17;;;;;;;-143.84;38.01;45041.44;5092202;28;20451;-75
2022/10/23 05:17:32;;;;;;;101.10;58.90;;;;;;;-143.84;38.10;45035.75;5091798;28;20478;-74
2022/10/23 05:20:02;;;;;;;28.30;18.73;;;;;;;-143.84;38.10;45064.31;5092077;28;20497;-74
2022/10/23 05:22:36;;;;;;;15.40;8.63;;;;;;;-143.84;38.29;45026.22;5074772;28;20468;-75
2022/10/23 05:25:04;;;;;;;14.40;6.40;;;;;;;-143.84;38.18;45018.59;5085698;28;20443;-75
2022/10/23 05:27:31;;;;;;;19.13;6.63;;;;;;;-143.84;38.28;45041.44;5085829;28;20965;-75
2022/10/23 05:30:01;;;;;;;13.13;5.93;;;;;;;-143.84;38.24;45037.66;5091719;28;20432;-74
2022/10/23 05:32:31;;;;;;;7.73;6.10;;;;;;;-143.84;38.25;45041.44;5085330;28;21069;-75
2022/10/23 05:34:59;;;;;;;9.43;6.93;;;;;;;-143.84;38.27;45039.53;5074588;28;20441;-74
2022/10/23 05:37:27;;;;;;;19.27;7.27;;;;;;;-143.84;38.48;45026.22;5073063;28;20449;-75
2022/10/23 05:39:54;;;;;;;19.20;7.10;;;;;;;-143.84;38.38;45050.97;5070541;28;20513;-75
2022/10/23 05:42:21;;;;;;;16.20;6.57;;;;;;;-143.84;38.53;45039.53;5086605;28;20992;-75
2022/10/23 05:44:48;;;;;;;10.50;5.87;;;;;;;-143.84;38.70;45039.53;5092763;28;20432;-76
2022/10/23 05:47:17;;;;;;;14.37;6.03;;;;;;;-143.84;38.78;45054.78;5092969;28;20432;-76
2022/10/23 05:49:44;;;;;;;10.73;6.10;;;;;;;-143.84;38.83;45054.78;5092431;28;21000;-76
2022/10/23 05:52:11;;;;;;;31.23;6.67;;;;;;;-143.84;39.09;45031.94;5092572;28;20443;-76
2022/10/23 05:54:38;;;;;;;12.73;6.73;;;;;;;-143.84;39.13;45045.25;5092397;28;20848;-76
2022/10/23 05:57:05;;;;;;;13.63;6.93;;;;;;;-143.84;39.49;45035.75;5092610;28;20440;-76
2022/10/23 05:59:33;;;;;;;12.80;5.90;;;;;;;-143.84;39.37;45052.88;5092245;28;20436;-75
2022/10/23 06:02:00;;;;;;;17.07;6.97;;;;;;;-143.84;39.74;45043.34;5092204;28;20493;-76
2022/10/23 06:04:29;;;;;;;14.10;7.10;;;;;;;-143.84;39.58;45043.34;5092373;28;20509;-75
2022/10/23 06:06:56;;;;;;;23.97;6.80;;;;;;;-143.84;40.09;45045.25;5092356;28;20541;-75
2022/10/23 06:09:23;;;;;;;19.30;6.77;;;;;;;-143.84;40.03;45054.78;5092204;28;20474;-76
2022/10/23 06:11:50;;;;;;;14.50;6.63;;;;;;;-143.84;40.28;45049.06;5092162;28;20482;-75
2022/10/23 06:14:17;;;;;;;14.50;6.80;;;;;;;-143.84;40.86;45060.50;5092542;28;20432;-76
2022/10/23 06:16:44;;;;;;;13.77;6.70;;;;;;;-143.84;41.07;45064.31;5092794;28;20432;-76
2022/10/23 06:19:12;;;;;;;13.87;6.10;;;;;;;-143.84;41.28;45035.75;5091835;28;21029;-75
2022/10/23 06:21:41;;;;;;;24.27;6.50;;;;;;;-143.84;41.82;45054.78;5092048;28;21102;-75
2022/10/23 06:24:08;;;;;;;16.33;6.60;;;;;;;-143.84;42.21;45062.41;5091658;28;20498;-75
2022/10/23 06:26:35;;;;;;;12.10;5.30;;;;;;;-143.84;42.35;45041.44;5091880;28;20918;-75
2022/10/23 06:29:02;;;;;;;15.33;6.33;;;;;;;-143.84;42.55;45071.91;5091820;28;21011;-75
2022/10/23 06:31:29;;;;;;;26.17;6.70;;;;;;;-143.84;42.87;45049.06;5091609;28;20505;-76
2022/10/23 06:33:58;;;;;;;16.23;6.73;;;;;;;-143.84;42.93;45052.88;5081594;28;20433;-76
2022/10/23 06:36:26;;;;;;;14.93;6.40;;;;;;;-143.84;43.02;45060.50;5071285;28;20797;-76
2022/10/23 06:38:55;;;;;;;18.53;6.50;;;;;;;-143.84;43.39;45050.97;5072053;28;21241;-76
2022/10/23 06:41:22;;;;;;;15.00;6.60;;;;;;;-143.84;43.54;45045.25;5072113;28;20864;-75
2022/10/23 06:43:50;;;;;;;16.73;7.00;;;;;;;-143.84;43.96;45050.97;5070025;28;20477;-76
2022/10/23 06:46:18;;;;;;;16.03;6.27;;;;;;;-143.84;44.08;45050.97;5070829;28;20475;-76
2022/10/23 06:48:46;;;;;;;21.57;6.20;;;;;;;-143.84;44.74;45043.34;5070626;28;20531;-75
2022/10/23 06:51:16;;;;;;;26.87;6.87;;;;;;;-143.84;44.65;45054.78;5070627;28;20517;-75
2022/10/23 06:53:44;;;;;;;19.87;6.50;;;;;;;-143.84;44.72;45049.06;5070707;28;20473;-75
2022/10/23 06:56:12;;;;;;;11.97;6.17;;;;;;;-143.84;44.23;45050.97;5070824;28;20441;-75
2022/10/23 06:58:40;;;;;;;17.63;5.87;;;;;;;-143.84;43.84;45068.13;5070340;28;20486;-75
2022/10/23 07:01:08;;;;;;;26.43;6.63;;;;;;;-143.84;43.70;45031.94;5070651;28;20924;-78
2022/10/23 07:03:36;;;;;;;44.57;6.50;;;;;;;-143.84;43.61;45018.59;5070166;28;20472;-76
2022/10/23 07:06:05;;;;;;;21.70;6.47;;;;;;;-143.84;43.84;45052.88;5070055;28;20498;-75
2022/10/23 07:08:33;;;;;;;35.20;7.83;;;;;;;-143.84;43.84;45012.88;5069534;28;20429;-76
2022/10/23 07:11:03;;;;;;;16.13;6.17;;;;;;;-143.84;44.20;45033.84;5069904;28;20436;-75
2022/10/23 07:13:33;;;;;;;18.10;6.17;;;;;;;-143.84;44.55;45045.25;5070072;28;20433;-75
2022/10/23 07:16:09;;;;;;;14.13;7.27;;;;;;;-143.84;44.39;45037.66;5070224;28;20506;-75
2022/10/23 07:18:36;;;;;;;27.87;6.60;;;;;;;-143.84;44.46;45049.06;5069941;28;20441;-76
2022/10/23 07:21:03;;;;;;;20.33;5.87;;;;;;;-143.84;44.30;45030.03;5070149;28;20495;-74
2022/10/23 07:23:30;;;;;;;19.93;6.53;;;;;;;-143.84;44.69;45052.88;5069737;28;20480;-75
2022/10/23 07:26:04;;;;;;;14.27;6.10;;;;;;;-143.84;44.41;45030.03;5069879;28;20436;-76
2022/10/23 07:28:33;;;;;;;15.53;5.90;;;;;;;-143.84;44.66;45039.53;5069286;28;20445;-71
2022/10/23 07:31:00;;;;;;;21.53;7.30;;;;;;;-143.84;44.49;45030.03;5069149;28;20453;-71
2022/10/23 07:33:27;;;;;;;11.03;5.93;;;;;;;-143.84;44.41;45041.44;5069389;28;20464;-77
2022/10/23 07:35:55;;;;;;;25.13;6.40;;;;;;;-143.84;44.63;45062.41;5070137;28;20432;-76
2022/10/23 07:38:22;;;;;;;36.60;7.17;;;;;;;-143.84;44.44;45035.75;5071303;28;20812;-75
2022/10/23 07:40:49;;;;;;;15.57;6.13;;;;;;;-143.84;43.92;45018.59;5071196;28;20524;-74
2022/10/23 07:43:17;;;;;;;18.60;6.43;;;;;;;-143.84;43.42;45003.38;5071491;28;20958;-75
2022/10/23 07:45:47;;;;;;;14.10;4.93;;;;;;;-143.84;43.11;45050.97;5070800;28;21311;-74
2022/10/23 07:48:14;;;;;;;9.50;5.33;;;;;;;-143.84;43.08;45024.31;5070104;28;20484;-74
2022/10/23 07:50:41;;;;;;;12.97;5.43;;;;;;;-143.84;43.16;45035.75;5070260;28;20451;-74
2022/10/23 07:53:15;;;;;;;11.40;5.80;;;;;;;-143.84;43.05;45031.94;5070212;28;20452;-73
2022/10/23 07:55:42;;;;;;;13.40;5.83;;;;;;;-143.84;42.60;45045.25;5069668;28;20915;-75
2022/10/23 07:58:09;;;;;;;19.63;6.03;;;;;;;-143.84;41.78;45058.59;5069614;28;20437;-74
2022/10/23 08:00:39;;;;;;;14.30;5.90;;;;;;;-143.84;41.91;45039.53;5070184;28;20448;-75
2022/10/23 08:03:09;;;;;;;18.87;6.20;;;;;;;-143.84;41.64;45022.41;5070825;28;20555;-74
2022/10/23 08:05:37;;;;;;;38.10;6.00;;;;;;;-143.84;40.67;44978.63;5070343;28;20437;-75
2022/10/23 08:08:04;;;;;;;22.43;7.30;;;;;;;-143.84;40.70;45022.41;5079552;28;20491;-74
2022/10/23 08:10:31;;;;;;;14.13;5.70;;;;;;;-143.84;40.34;45022.41;5073559;28;20440;-73
2022/10/23 08:12:58;;;;;;;13.50;6.13;;;;;;;-143.84;39.84;44995.75;5070153;28;20486;-73
2022/10/23 08:15:26;;;;;;;13.93;6.13;;;;;;;-143.84;39.16;44990.03;5088219;28;20451;-73
2022/10/23 08:17:53;;;;;;;27.50;5.70;;;;;;;-143.84;38.78;45012.88;5089233;28;20976;-74
2022/10/23 08:20:21;;;;;;;10.20;5.60;;;;;;;-143.84;39.01;44995.75;5089677;28;20586;-73
2022/10/23 08:22:48;;;;;;;29.47;5.57;;;;;;;-143.84;38.93;45007.19;5089536;28;20984;-73
2022/10/23 08:25:16;;;;;;;12.97;5.60;;;;;;;-143.84;38.49;45010.97;5089734;28;20443;-73
2022/10/23 08:27:43;;;;;;;11.33;5.80;;;;;;;-143.84;37.87;45022.41;5089300;28;20436;-75
2022/10/23 08:30:11;;;;;;;10.23;5.63;;;;;;;-143.84;37.98;44990.03;5079413;28;20441;-72
2022/10/23 08:32:39;;;;;;;8.93;4.83;;;;;;;-143.84;37.66;45005.28;5069529;28;20443;-70
2022/10/23 08:35:07;;;;;;;8.10;5.30;;;;;;;-143.84;37.81;45001.47;5069516;28;20441;-77
2022/10/23 08:37:36;;;;;;;28.73;5.47;;;;;;;-143.84;37.21;45007.19;5072177;28;20504;-74
2022/10/23 08:40:04;;;;;;;14.83;6.47;;;;;;;-143.84;37.42;44995.75;5078660;28;21024;-73
2022/10/23 08:42:37;;;;;;;16.43;5.90;;;;;;;-143.84;37.39;44995.75;5088089;28;20929;-75
2022/10/23 08:45:08;;;;;;;15.60;5.93;;;;;;;-143.84;36.81;44997.66;5088846;28;21157;-73
2022/10/23 08:47:40;;;;;;;10.70;6.43;;;;;;;-143.84;36.99;45014.78;5089301;28;20433;-74
2022/10/23 08:50:15;;;;;;;20.80;5.23;;;;;;;-143.84;36.90;44980.53;5090093;28;20959;-74
2022/10/23 08:52:51;;;;;;;9.23;5.00;;;;;;;-143.84;37.13;45026.22;5088295;28;20948;-74
2022/10/23 08:55:24;;;;;;;11.77;6.50;;;;;;;-143.84;36.81;44969.09;5088361;28;21140;-74
2022/10/23 08:57:58;;;;;;;15.40;5.63;;;;;;;-143.84;36.77;44982.41;5085956;28;21525;-74
2022/10/23 09:00:25;;;;;;;9.07;6.57;;;;;;;-143.84;36.72;44993.84;5070925;28;20905;-74
2022/10/23 09:02:54;;;;;;;22.97;6.20;;;;;;;-143.84;36.35;44991.94;5088385;28;20913;-73
2022/10/23 09:05:27;;;;;;;7.47;5.23;;;;;;;-143.84;36.21;44988.13;5088606;28;20525;-74
2022/10/23 09:08:23;;;;;;;9.17;5.80;;;;;;;-143.84;35.98;44961.47;5090191;28;20484;-74
2022/10/23 09:11:04;;;;;;;12.23;5.23;;;;;;;-143.84;35.96;44997.66;5092835;28;20504;-73
2022/10/23 09:13:48;;;;;;;8.00;5.23;;;;;;;-143.84;35.78;44969.09;5093145;28;20428;-72
2022/10/23 09:16:24;;;;;;;6.90;4.47;;;;;;;-143.84;36.02;44972.91;5092908;28;20432;-73
2022/10/23 09:18:52;;;;;;;8.23;4.50;;;;;;;-143.84;35.82;44976.72;5093308;28;20913;-72
2022/10/23 09:21:19;;;;;;;7.90;4.47;;;;;;;-143.84;35.49;44963.38;5080467;28;20441;-72
2022/10/23 09:23:48;;;;;;;7.70;4.50;;;;;;;-143.84;35.44;44969.09;5077305;28;20559;-74
2022/10/23 09:26:17;;;;;;;15.43;5.07;;;;;;;-143.84;35.35;44951.97;5076223;28;20827;-71
2022/10/23 09:28:48;;;;;;;8.23;5.83;;;;;;;-143.84;35.19;44978.63;5071140;28;20988;-73
2022/10/23 09:31:16;;;;;;;17.27;5.00;;;;;;;-143.84;36.07;44988.13;5073001;28;20849;-73
2022/10/23 09:33:54;;;;;;;11.20;4.80;;;;;;;-143.84;35.05;44967.19;5072848;28;20937;-73
2022/10/23 09:36:24;;;;;;;14.00;4.03;;;;;;;-143.84;35.48;44946.25;5073877;28;20825;-73
2022/10/23 09:38:57;;;;;;;9.23;4.60;;;;;;;-143.84;34.69;44972.91;5072233;28;20522;-72
2022/10/23 09:41:29;;;;;;;5.30;4.70;;;;;;;-143.84;34.59;44972.91;5075187;28;20445;-72
2022/10/23 09:44:15;;;;;;;13.00;5.00;;;;;;;-143.84;35.21;44972.91;5070988;28;20476;-73
2022/10/23 09:46:44;;;;;;;11.30;4.60;;;;;;;-143.84;34.93;44957.66;5072025;28;20794;-74
2022/10/23 09:49:18;;;;;;;4.60;4.20;;;;;;;-143.84;34.61;44953.88;5070316;28;20492;-73
2022/10/23 09:52:02;;;;;;;6.97;4.30;;;;;;;-143.84;34.35;44993.84;5073640;28;20456;-73
2022/10/23 09:54:33;;;;;;;6.20;4.17;;;;;;;-143.84;34.68;44955.75;5071798;28;20456;-73
2022/10/23 09:57:06;;;;;;;7.37;4.43;;;;;;;-143.84;34.74;44932.91;5070596;28;20506;-73
2022/10/23 09:59:34;;;;;;;8.00;5.10;;;;;;;-143.84;35.03;44974.81;5070861;28;20459;-73
2022/10/23 10:02:04;;;;;;;14.67;4.63;;;;;;;-143.84;34.18;44955.75;5074390;28;21072;-73
2022/10/23 10:04:33;;;;;;;9.10;4.10;;;;;;;-143.84;34.76;44969.09;5070820;28;20512;-73
2022/10/23 10:07:02;;;;;;;9.93;4.70;;;;;;;-143.84;34.93;44967.19;5069848;28;20536;-72
2022/10/23 10:09:29;;;;;;;13.10;4.70;;;;;;;-143.84;34.45;44972.91;5071278;28;20453;-72
2022/10/23 10:12:10;;;;;;;4.47;4.13;;;;;;;-143.84;34.23;44946.25;5074435;28;20445;-72
2022/10/23 10:14:53;;;;;;;5.93;3.70;;;;;;;-143.84;34.14;44936.72;5053035;28;20522;-73
2022/10/23 10:17:30;;;;;;;8.60;4.20;;;;;;;-143.84;34.32;44957.66;5070625;28;20804;-73
2022/10/23 10:20:22;;;;;;;4.03;3.60;;;;;;;-143.84;34.01;44942.44;5069624;28;20452;-73
2022/10/23 10:22:55;;;;;;;6.37;4.20;;;;;;;-143.84;33.91;44955.75;5067527;28;20457;-73
2022/10/23 10:25:28;;;;;;;5.10;4.60;;;;;;;-143.84;33.99;44953.88;5071146;28;20484;-74
2022/10/23 10:28:14;;;;;;;4.33;3.93;;;;;;;-143.84;33.94;44959.56;5072464;28;20445;-74
2022/10/23 10:30:50;;;;;;;4.17;3.83;;;;;;;-143.84;33.91;44959.56;5072668;28;20451;-73
2022/10/23 10:33:20;;;;;;;9.00;3.90;;;;;;;-143.84;34.17;44953.88;5078490;28;20960;-74
2022/10/23 10:35:56;;;;;;;5.77;4.47;;;;;;;-143.84;33.85;44953.88;5076677;28;20453;-74
2022/10/23 10:38:44;;;;;;;4.40;4.00;;;;;;;-143.84;33.73;44942.44;5072922;28;20444;-74
2022/10/23 10:41:43;;;;;;;10.50;3.80;;;;;;;-143.84;34.34;44963.38;5072283;28;20969;-74
2022/10/23 10:44:36;;;;;;;7.97;4.53;;;;;;;-143.84;34.13;44942.44;5072550;28;20859;-74
2022/10/23 10:47:13;;;;;;;16.30;4.20;;;;;;;-143.84;34.23;44959.56;5052520;28;20465;-74
2022/10/23 10:49:48;;;;;;;13.90;4.17;;;;;;;-143.84;34.45;44950.06;5069875;28;20489;-74
2022/10/23 10:52:22;;;;;;;5.73;4.30;;;;;;;-143.84;34.74;44953.88;5071048;28;20444;-76
2022/10/23 10:54:58;;;;;;;4.20;3.83;;;;;;;-143.84;34.18;44969.09;5071860;28;20849;-76
2022/10/23 10:57:32;;;;;;;5.33;4.43;;;;;;;-143.84;34.37;44961.47;5070199;28;20496;-79
2022/10/23 11:00:05;;;;;;;9.13;3.83;;;;;;;-143.84;33.82;44965.28;5075527;28;20550;-78
2022/10/23 11:02:40;;;;;;;4.57;4.13;;;;;;;-143.84;33.77;44950.06;5073448;28;20480;-74
2022/10/23 11:05:22;;;;;;;4.27;3.67;;;;;;;-143.84;33.33;44974.81;5072591;28;20507;-76
2022/10/23 11:07:55;;;;;;;6.93;3.87;;;;;;;-143.84;33.08;44980.53;5074179;28;20480;-74
2022/10/23 11:10:23;;;;;;;5.63;3.60;;;;;;;-143.84;34.09;44995.75;5074490;28;20498;-76
2022/10/23 11:12:52;;;;;;;6.40;4.10;;;;;;;-143.84;34.99;44980.53;5070304;28;20537;-76
2022/10/23 11:15:24;;;;;;;3.70;3.40;;;;;;;-143.84;33.78;44961.47;5077598;28;21015;-78
2022/10/23 11:17:57;;;;;;;3.77;3.47;;;;;;;-143.84;33.89;44972.91;5070793;28;20460;-73
2022/10/23 11:20:52;;;;;;;8.23;3.70;;;;;;;-143.84;33.68;44942.44;5069064;28;20454;-73
2022/10/23 11:23:49;;;;;;;3.50;3.20;;;;;;;-143.84;34.02;44938.63;5067055;28;20457;-73
2022/10/23 11:26:30;;;;;;;4.57;3.00;;;;;;;-143.84;34.68;44953.88;5068726;28;20449;-73
2022/10/23 11:29:12;;;;;;;4.77;2.90;;;;;;;-143.84;33.00;44965.28;5069446;28;20472;-73